createdAt,value
2023-04-11T00:01:51.482Z,11.10
2023-04-11T00:04:25.698Z,11.53
2023-04-11T00:06:54.840Z,12.03
2023-04-11T00:09:25.357Z,12.50
2023-04-11T00:11:57.169Z,11.70
2023-04-11T00:14:29.163Z,12.20
2023-04-11T00:17:01.047Z,11.73
2023-04-11T00:19:30.997Z,11.77
2023-04-11T00:22:00.603Z,12.30
2023-04-11T00:24:29.783Z,11.60
2023-04-11T00:26:59.955Z,11.90
2023-04-11T00:29:29.234Z,11.83
2023-04-11T00:31:58.323Z,11.93
2023-04-11T00:34:27.421Z,11.77
2023-04-11T00:36:56.239Z,12.20
2023-04-11T00:39:26.621Z,11.80
2023-04-11T00:41:55.805Z,11.48
2023-04-11T00:44:26.219Z,12.27
2023-04-11T00:46:54.717Z,12.03
2023-04-11T00:49:23.334Z,11.90
2023-04-11T00:51:51.854Z,11.93
2023-04-11T00:54:20.447Z,11.97
2023-04-11T00:56:48.938Z,11.63
2023-04-11T00:59:17.482Z,11.50
2023-04-11T01:01:50.093Z,11.57
2023-04-11T01:04:19.363Z,11.10
2023-04-11T01:06:52.883Z,11.57
2023-04-11T01:09:22.892Z,12.00
2023-04-11T01:11:52.733Z,15.43
2023-04-11T01:14:22.996Z,11.80
2023-04-11T01:16:56.796Z,12.03
2023-04-11T01:19:27.719Z,11.70
2023-04-11T01:21:59.292Z,12.07
2023-04-11T01:24:29.837Z,11.40
2023-04-11T01:26:58.770Z,11.43
2023-04-11T01:29:27.341Z,11.47
2023-04-11T01:31:55.974Z,11.87
2023-04-11T01:34:28.573Z,10.90
2023-04-11T01:36:57.322Z,11.47
2023-04-11T01:39:25.866Z,11.33
2023-04-11T01:41:57.862Z,11.57
2023-04-11T01:44:27.857Z,11.40
2023-04-11T01:46:57.186Z,11.47
2023-04-11T01:49:27.042Z,11.30
2023-04-11T01:51:55.840Z,11.07
2023-04-11T01:54:24.301Z,11.63
2023-04-11T01:56:54.982Z,11.40
2023-04-11T01:59:24.852Z,11.10
2023-04-11T02:01:53.523Z,11.10
2023-04-11T02:04:22.639Z,10.90
2023-04-11T02:06:51.740Z,10.80
2023-04-11T02:09:21.239Z,11.23
2023-04-11T02:11:49.611Z,11.23
2023-04-11T02:14:21.473Z,10.60
2023-04-11T02:16:55.884Z,11.23
2023-04-11T02:19:26.400Z,11.20
2023-04-11T02:21:54.822Z,10.93
2023-04-11T02:24:23.188Z,11.47
2023-04-11T02:26:51.519Z,10.90
2023-04-11T02:29:19.990Z,10.80
2023-04-11T02:31:51.447Z,11.13
2023-04-11T02:34:21.457Z,11.00
2023-04-11T02:36:50.137Z,10.93
2023-04-11T02:39:22.051Z,11.40
2023-04-11T02:41:50.606Z,10.70
2023-04-11T02:44:21.820Z,10.93
2023-04-11T02:46:50.384Z,11.77
2023-04-11T02:49:20.537Z,11.07
2023-04-11T02:51:49.465Z,10.70
2023-04-11T02:54:17.849Z,10.90
2023-04-11T02:56:46.892Z,11.00
2023-04-11T02:59:15.550Z,11.40
2023-04-11T03:01:45.839Z,10.70
2023-04-11T03:04:14.467Z,11.23
2023-04-11T03:07:04.577Z,11.63
2023-04-11T03:09:33.097Z,11.07
2023-04-11T03:12:01.583Z,11.17
2023-04-11T03:14:30.299Z,11.73
2023-04-11T03:16:58.701Z,11.43
2023-04-11T03:19:28.435Z,12.47
2023-04-11T03:21:57.032Z,11.10
2023-04-11T03:24:26.896Z,11.53
2023-04-11T03:26:57.793Z,11.63
2023-04-11T03:29:26.451Z,11.17
2023-04-11T03:32:07.255Z,11.10
2023-04-11T03:34:37.514Z,11.30
2023-04-11T03:37:08.392Z,11.20
2023-04-11T03:39:39.965Z,11.03
2023-04-11T03:42:08.774Z,11.43
2023-04-11T03:44:37.572Z,10.87
2023-04-11T03:47:06.167Z,11.27
2023-04-11T03:49:42.100Z,10.80
2023-04-11T03:52:11.490Z,11.30
2023-04-11T03:54:41.908Z,11.20
2023-04-11T03:57:12.277Z,10.80
2023-04-11T03:59:40.824Z,11.50
2023-04-11T04:02:12.094Z,12.77
2023-04-11T04:04:48.728Z,11.20
2023-04-11T04:07:37.726Z,11.60
2023-04-11T04:10:17.785Z,11.33
2023-04-11T04:12:51.024Z,10.90
2023-04-11T04:15:21.896Z,11.53
2023-04-11T04:17:51.965Z,11.90
2023-04-11T04:20:44.973Z,11.80
2023-04-11T04:23:14.256Z,11.03
2023-04-11T04:26:04.317Z,11.73
2023-04-11T04:28:34.657Z,11.77
2023-04-11T04:31:05.516Z,11.03
2023-04-11T04:33:42.871Z,12.10
2023-04-11T04:36:20.131Z,10.90
2023-04-11T04:38:50.455Z,11.60
2023-04-11T04:41:22.159Z,11.00
2023-04-11T04:43:58.346Z,11.43
2023-04-11T04:46:38.816Z,11.10
2023-04-11T04:49:08.844Z,10.80
2023-04-11T04:51:40.306Z,11.30
2023-04-11T04:54:09.052Z,11.53
2023-04-11T04:56:39.776Z,11.10
2023-04-11T04:59:14.639Z,11.50
2023-04-11T05:01:45.184Z,11.10
2023-04-11T05:04:14.078Z,12.20
2023-04-11T05:06:49.159Z,11.20
2023-04-11T05:09:18.732Z,11.20
2023-04-11T05:11:48.507Z,12.00
2023-04-11T05:14:17.279Z,12.00
2023-04-11T05:16:46.338Z,11.30
2023-04-11T05:19:14.844Z,11.40
2023-04-11T05:21:48.215Z,11.20
2023-04-11T05:24:16.755Z,11.97
2023-04-11T05:26:45.841Z,11.67
2023-04-11T05:29:19.520Z,11.40
2023-04-11T05:31:49.186Z,13.03
2023-04-11T05:34:18.443Z,11.23
2023-04-11T05:36:51.413Z,11.43
2023-04-11T05:39:20.376Z,11.83
2023-04-11T05:41:48.928Z,11.03
2023-04-11T05:44:18.763Z,11.80
2023-04-11T05:46:47.180Z,11.00
2023-04-11T05:49:15.659Z,11.90
2023-04-11T05:51:44.038Z,11.43
2023-04-11T05:54:12.685Z,11.60
2023-04-11T05:56:42.564Z,11.20
2023-04-11T05:59:11.698Z,10.90
2023-04-11T06:01:41.615Z,11.47
2023-04-11T06:04:10.045Z,11.80
2023-04-11T06:06:38.793Z,11.03
2023-04-11T06:09:09.117Z,15.50
2023-04-11T06:11:37.482Z,11.17
2023-04-11T06:14:05.872Z,11.43
2023-04-11T06:16:36.401Z,11.67
2023-04-11T06:19:06.553Z,11.60
2023-04-11T06:21:34.982Z,11.43
2023-04-11T06:24:08.969Z,11.70
2023-04-11T06:26:37.415Z,11.90
2023-04-11T06:29:07.162Z,11.20
2023-04-11T06:31:35.724Z,12.00
2023-04-11T06:34:05.625Z,11.70
2023-04-11T06:36:34.002Z,10.93
2023-04-11T06:39:02.324Z,12.20
2023-04-11T06:41:30.965Z,11.80
2023-04-11T06:43:59.424Z,12.57
2023-04-11T06:46:27.935Z,11.67
2023-04-11T06:48:56.342Z,11.47
2023-04-11T06:51:26.599Z,11.40
2023-04-11T06:53:55.157Z,11.73
2023-04-11T06:56:23.685Z,11.33
2023-04-11T06:58:51.997Z,10.93
2023-04-11T07:01:20.688Z,10.73
2023-04-11T07:03:50.280Z,10.77
2023-04-11T07:06:18.778Z,10.93
2023-04-11T07:08:48.475Z,10.80
2023-04-11T07:11:18.572Z,10.13
2023-04-11T07:13:48.743Z,10.73
2023-04-11T07:16:17.263Z,11.30
2023-04-11T07:18:45.882Z,10.70
2023-04-11T07:21:14.514Z,10.07
2023-04-11T07:23:43.775Z,9.83
2023-04-11T07:26:14.572Z,10.10
2023-04-11T07:28:44.279Z,10.27
2023-04-11T07:31:13.907Z,10.10
2023-04-11T07:33:45.272Z,10.50
2023-04-11T07:36:13.984Z,10.43
2023-04-11T07:38:42.670Z,10.50
2023-04-11T07:41:11.187Z,10.73
2023-04-11T07:43:40.995Z,9.90
2023-04-11T07:46:09.637Z,10.33
2023-04-11T07:48:38.142Z,10.50
2023-04-11T07:51:06.748Z,10.10
2023-04-11T07:53:35.162Z,10.47
2023-04-11T07:56:05.025Z,11.00
2023-04-11T07:58:33.542Z,10.17
2023-04-11T08:01:03.868Z,10.20
2023-04-11T08:03:32.831Z,10.20
2023-04-11T08:06:01.327Z,10.53
2023-04-11T08:08:29.681Z,10.23
2023-04-11T08:10:58.002Z,10.43
2023-04-11T08:13:26.484Z,10.43
2023-04-11T08:15:54.763Z,10.20
2023-04-11T08:18:24.479Z,10.60
2023-04-11T08:20:52.971Z,10.40
2023-04-11T08:23:22.744Z,10.07
2023-04-11T08:25:51.130Z,10.27
2023-04-11T08:28:19.493Z,10.00
2023-04-11T08:30:47.892Z,10.50
2023-04-11T08:33:16.460Z,10.00
2023-04-11T08:35:46.312Z,10.27
2023-04-11T08:38:14.660Z,9.67
2023-04-11T08:40:42.972Z,9.70
2023-04-11T08:43:13.053Z,10.47
2023-04-11T08:45:41.900Z,10.33
2023-04-11T08:48:12.447Z,10.40
2023-04-11T08:50:42.334Z,10.10
2023-04-11T08:53:12.765Z,10.13
2023-04-11T08:55:47.487Z,10.00
2023-04-11T08:58:16.295Z,10.27
2023-04-11T09:00:45.425Z,10.43
2023-04-11T09:03:17.944Z,9.83
2023-04-11T09:05:47.261Z,10.23
2023-04-11T09:08:18.327Z,10.20
2023-04-11T09:10:47.517Z,10.07
2023-04-11T09:13:23.052Z,10.17
2023-04-11T09:16:09.175Z,10.27
2023-04-11T09:18:40.701Z,10.33
2023-04-11T09:21:11.997Z,9.93
2023-04-11T09:23:42.264Z,9.67
2023-04-11T09:26:12.909Z,10.00
2023-04-11T09:28:43.322Z,10.10
2023-04-11T09:31:13.546Z,9.63
2023-04-11T09:33:54.597Z,9.70
2023-04-11T09:36:25.229Z,9.70
2023-04-11T09:38:56.117Z,10.00
2023-04-11T09:41:32.347Z,9.90
2023-04-11T09:44:01.455Z,9.93
2023-04-11T09:46:30.001Z,10.23
2023-04-11T09:48:58.374Z,9.50
2023-04-11T09:53:59.885Z,9.63
2023-04-11T09:56:31.706Z,10.27
2023-04-11T09:59:02.059Z,9.90
2023-04-11T10:01:30.437Z,10.30
2023-04-11T10:03:58.999Z,9.80
2023-04-11T10:06:33.930Z,9.87
2023-04-11T10:09:13.069Z,9.90
2023-04-11T10:11:43.558Z,9.80
2023-04-11T10:14:45.799Z,9.60
2023-04-11T10:17:20.810Z,9.50
2023-04-11T10:19:51.833Z,9.70
2023-04-11T10:23:01.774Z,9.63
2023-04-11T10:25:32.350Z,10.03
2023-04-11T10:28:02.054Z,9.60
2023-04-11T10:31:04.079Z,9.83
2023-04-11T10:33:33.696Z,9.73
2023-04-11T10:36:05.471Z,10.80
2023-04-11T10:38:50.731Z,9.50
2023-04-11T10:41:28.419Z,9.43
2023-04-11T10:44:25.033Z,9.30
2023-04-11T10:46:55.845Z,9.20
2023-04-11T10:49:36.551Z,9.50
2023-04-11T10:52:23.648Z,9.20
2023-04-11T10:54:53.684Z,9.20
2023-04-11T10:57:23.871Z,9.23
2023-04-11T11:00:13.056Z,9.57
2023-04-11T11:02:43.151Z,9.63
2023-04-11T11:05:20.524Z,9.60
2023-04-11T11:07:54.716Z,9.37
2023-04-11T11:10:43.470Z,9.47
2023-04-11T11:13:16.076Z,9.20
2023-04-11T11:15:49.979Z,9.50
2023-04-11T11:18:19.803Z,9.37
2023-04-11T11:20:48.224Z,12.17
2023-04-11T11:23:16.545Z,10.73
2023-04-11T11:25:54.786Z,9.30
2023-04-11T11:28:24.930Z,9.80
2023-04-11T11:30:55.579Z,9.17
2023-04-11T11:33:26.588Z,9.10
2023-04-11T11:35:59.684Z,9.20
2023-04-11T11:38:30.306Z,9.97
2023-04-11T11:41:00.300Z,9.02
2023-04-11T11:43:30.231Z,9.33
2023-04-11T11:46:14.350Z,9.20
2023-04-11T11:48:44.834Z,9.40
2023-04-11T11:51:14.207Z,9.30
2023-04-11T11:53:42.732Z,9.80
2023-04-11T11:56:15.604Z,9.30
2023-04-11T11:58:46.274Z,9.37
2023-04-11T12:01:17.098Z,9.87
2023-04-11T12:03:51.347Z,9.83
2023-04-11T12:06:20.415Z,10.10
2023-04-11T12:08:53.929Z,9.87
2023-04-11T12:11:22.632Z,9.77
2023-04-11T12:13:55.104Z,10.13
2023-04-11T12:16:24.602Z,9.93
2023-04-11T12:18:53.082Z,9.53
2023-04-11T12:21:21.372Z,9.60
2023-04-11T12:23:49.662Z,9.57
2023-04-11T12:26:20.972Z,9.50
2023-04-11T12:28:49.507Z,9.70
2023-04-11T12:31:20.186Z,9.50
2023-04-11T12:33:48.555Z,9.70
2023-04-11T12:36:16.853Z,10.13
2023-04-11T12:38:45.643Z,9.80
2023-04-11T12:41:31.792Z,10.17
2023-04-11T12:44:02.531Z,9.87
2023-04-11T12:46:33.601Z,9.90
2023-04-11T12:49:02.094Z,9.47
2023-04-11T12:51:31.339Z,9.37
2023-04-11T12:53:59.651Z,9.90
2023-04-11T12:56:27.999Z,9.60
2023-04-11T12:58:56.726Z,9.67
2023-04-11T13:01:25.402Z,9.50
2023-04-11T13:03:55.264Z,11.90
2023-04-11T13:06:24.626Z,12.90
2023-04-11T13:08:53.008Z,9.60
2023-04-11T13:11:21.377Z,9.90
2023-04-11T13:13:49.963Z,9.97
2023-04-11T13:16:18.366Z,9.73
2023-04-11T13:18:46.713Z,9.90
2023-04-11T13:21:16.576Z,9.80
2023-04-11T13:23:44.892Z,9.90
2023-04-11T13:26:13.258Z,9.97
2023-04-11T13:28:41.553Z,9.60
2023-04-11T13:31:10.663Z,9.70
2023-04-11T13:33:40.542Z,9.50
2023-04-11T13:36:11.219Z,9.53
2023-04-11T13:38:41.178Z,9.97
2023-04-11T13:41:09.547Z,9.90
2023-04-11T13:43:37.897Z,9.73
2023-04-11T13:46:06.789Z,9.57
2023-04-11T13:48:36.020Z,9.53
2023-04-11T13:51:04.385Z,9.80
2023-04-11T13:53:32.759Z,9.60
2023-04-11T13:56:03.861Z,9.63
2023-04-11T13:58:33.217Z,10.30
2023-04-11T14:01:01.767Z,9.47
2023-04-11T14:03:33.751Z,9.60
2023-04-11T14:06:03.461Z,9.97
2023-04-11T14:08:32.034Z,10.27
2023-04-11T14:11:00.363Z,9.80
2023-04-11T14:13:30.104Z,9.70
2023-04-11T14:16:08.023Z,10.07
2023-04-11T14:18:37.571Z,9.80
2023-04-11T14:21:08.131Z,9.73
2023-04-11T14:23:36.844Z,9.57
2023-04-11T14:26:05.805Z,9.43
2023-04-11T14:28:36.733Z,9.40
2023-04-11T14:31:05.554Z,9.87
2023-04-11T14:33:34.022Z,9.63
2023-04-11T14:36:02.377Z,9.60
2023-04-11T14:38:30.776Z,9.50
2023-04-11T14:40:59.151Z,10.07
2023-04-11T14:43:27.595Z,9.73
2023-04-11T14:45:58.479Z,9.57
2023-04-11T14:48:28.842Z,10.10
2023-04-11T14:50:57.291Z,9.63
2023-04-11T14:53:26.125Z,10.00
2023-04-11T14:55:54.436Z,9.57
2023-04-11T14:58:22.799Z,9.70
2023-04-11T15:00:51.542Z,9.97
2023-04-11T15:03:21.720Z,9.90
2023-04-11T15:05:50.218Z,10.30
2023-04-11T15:08:18.581Z,10.20
2023-04-11T15:10:46.918Z,9.73
2023-04-11T15:13:15.919Z,9.60
2023-04-11T15:15:44.337Z,10.20
2023-04-11T15:18:26.100Z,9.50
2023-04-11T15:20:54.752Z,10.10
2023-04-11T15:23:23.202Z,10.00
2023-04-11T15:25:55.402Z,9.60
2023-04-11T15:28:25.042Z,10.13
2023-04-11T15:30:55.303Z,10.37
2023-04-11T15:33:25.111Z,10.30
2023-04-11T15:35:54.664Z,10.33
2023-04-11T15:38:23.442Z,10.23
2023-04-11T15:40:52.734Z,10.00
2023-04-11T15:43:21.440Z,10.20
2023-04-11T15:45:51.309Z,10.20
2023-04-11T15:48:19.715Z,9.77
2023-04-11T15:50:49.337Z,10.13
2023-04-11T15:53:17.682Z,10.17
2023-04-11T15:55:47.165Z,9.93
2023-04-11T15:58:15.703Z,9.90
2023-04-11T16:00:44.793Z,10.50
2023-04-11T16:03:13.450Z,9.80
2023-04-11T16:05:43.310Z,10.10
2023-04-11T16:08:13.221Z,10.33
2023-04-11T16:10:41.660Z,10.00
2023-04-11T16:13:10.179Z,9.77
2023-04-11T16:15:38.486Z,10.10
2023-04-11T16:18:07.273Z,10.33
2023-04-11T16:20:35.677Z,10.20
2023-04-11T16:23:04.156Z,10.37
2023-04-11T16:25:34.176Z,9.85
2023-04-11T16:28:02.720Z,10.50
2023-04-11T16:30:31.377Z,10.17
2023-04-11T16:33:00.042Z,10.50
2023-04-11T16:35:28.501Z,10.67
2023-04-11T16:37:56.783Z,16.60
2023-04-11T16:40:25.317Z,10.53
2023-04-11T16:42:54.969Z,9.90
2023-04-11T16:45:23.246Z,10.57
2023-04-11T16:47:51.728Z,10.10
2023-04-11T16:50:20.465Z,10.20
2023-04-11T16:52:48.795Z,10.03
2023-04-11T16:55:17.917Z,9.87
2023-04-11T16:57:46.270Z,10.43
2023-04-11T17:00:20.258Z,10.13
2023-04-11T17:02:48.832Z,10.07
2023-04-11T17:05:18.927Z,10.50
2023-04-11T17:07:47.344Z,10.57
2023-04-11T17:10:16.158Z,10.20
2023-04-11T17:12:44.527Z,10.40
2023-04-11T17:15:13.214Z,10.07
2023-04-11T17:17:44.325Z,10.17
2023-04-11T17:20:13.236Z,10.07
2023-04-11T17:22:44.419Z,10.15
2023-04-11T17:25:12.772Z,10.03
2023-04-11T17:27:41.971Z,10.57
2023-04-11T17:30:12.276Z,10.47
2023-04-11T17:32:42.111Z,10.83
2023-04-11T17:35:12.607Z,10.03
2023-04-11T17:37:40.950Z,10.90
2023-04-11T17:40:13.454Z,10.73
2023-04-11T17:42:42.445Z,10.43
2023-04-11T17:45:17.824Z,11.20
2023-04-11T17:47:48.785Z,10.60
2023-04-11T17:50:17.904Z,10.57
2023-04-11T17:52:47.498Z,10.53
2023-04-11T17:55:17.842Z,10.43
2023-04-11T17:57:48.826Z,10.67
2023-04-11T18:00:22.135Z,10.07
2023-04-11T18:02:54.708Z,10.43
2023-04-11T18:05:26.319Z,10.73
2023-04-11T18:07:57.455Z,9.93
2023-04-11T18:10:27.506Z,10.60
2023-04-11T18:12:57.694Z,10.90
2023-04-11T18:15:27.335Z,10.83
2023-04-11T18:17:57.155Z,10.47
2023-04-11T18:20:25.838Z,10.73
2023-04-11T18:22:56.430Z,11.40
2023-04-11T18:25:25.294Z,10.63
2023-04-11T18:27:53.738Z,10.60
2023-04-11T18:30:22.046Z,10.70
2023-04-11T18:32:52.337Z,10.73
2023-04-11T18:35:22.392Z,11.03
2023-04-11T18:37:51.212Z,102.23
2023-04-11T18:40:19.623Z,69.23
2023-04-11T18:42:52.764Z,43.87
2023-04-11T18:45:22.446Z,36.93
2023-04-11T18:47:51.368Z,45.83
2023-04-11T18:50:22.588Z,37.30
2023-04-11T18:52:54.995Z,34.83
2023-04-11T18:55:25.670Z,33.30
2023-04-11T18:57:57.176Z,22.55
2023-04-11T19:00:29.564Z,18.40
2023-04-11T19:02:58.536Z,17.10
2023-04-11T19:05:29.559Z,14.20
2023-04-11T19:07:58.398Z,14.73
2023-04-11T19:10:27.068Z,13.50
2023-04-11T19:12:55.639Z,12.73
2023-04-11T19:15:24.290Z,12.00
2023-04-11T19:17:52.860Z,12.60
2023-04-11T19:20:22.708Z,11.90
2023-04-11T19:22:52.742Z,11.87
2023-04-11T19:25:21.269Z,12.37
2023-04-11T19:27:51.076Z,11.70
2023-04-11T19:30:19.576Z,11.93
2023-04-11T19:32:48.678Z,11.33
2023-04-11T19:35:21.390Z,12.53
2023-04-11T19:37:49.976Z,12.50
2023-04-11T19:40:23.204Z,12.17
2023-04-11T19:42:52.323Z,11.40
2023-04-11T19:45:20.798Z,11.13
2023-04-11T19:47:49.293Z,11.27
2023-04-11T19:50:17.755Z,11.60
2023-04-11T19:52:46.220Z,12.07
2023-04-11T19:55:14.709Z,12.07
2023-04-11T19:57:44.439Z,11.53
2023-04-11T20:00:14.487Z,11.43
2023-04-11T20:02:48.256Z,11.93
2023-04-11T20:05:18.584Z,11.37
2023-04-11T20:07:47.883Z,11.63
2023-04-11T20:10:17.805Z,11.80
2023-04-11T20:12:47.759Z,11.10
2023-04-11T20:15:16.200Z,11.90
2023-04-11T20:17:46.069Z,11.47
2023-04-11T20:20:15.789Z,11.40
2023-04-11T20:22:45.826Z,10.80
2023-04-11T20:25:14.196Z,12.13
2023-04-11T20:27:44.154Z,11.77
2023-04-11T20:30:16.723Z,11.57
2023-04-11T20:32:45.972Z,11.00
2023-04-11T20:35:15.805Z,10.60
2023-04-11T20:37:44.566Z,11.40
2023-04-11T20:40:14.460Z,11.33
2023-04-11T20:42:45.970Z,11.60
2023-04-11T20:45:20.795Z,11.67
2023-04-11T20:47:50.015Z,12.13
2023-04-11T20:50:19.565Z,11.63
2023-04-11T20:52:52.809Z,10.90
2023-04-11T20:55:21.940Z,11.20
2023-04-11T20:57:50.698Z,11.83
2023-04-11T21:00:21.201Z,11.50
2023-04-11T21:02:51.850Z,11.00
2023-04-11T21:05:22.040Z,11.50
2023-04-11T21:07:51.743Z,11.57
2023-04-11T21:10:21.093Z,11.00
2023-04-11T21:12:51.836Z,11.40
2023-04-11T21:15:22.555Z,11.80
2023-04-11T21:17:52.387Z,11.93
2023-04-11T21:20:22.533Z,11.20
2023-04-11T21:22:53.958Z,11.60
2023-04-11T21:25:24.471Z,11.90
2023-04-11T21:27:52.974Z,11.77
2023-04-11T21:30:23.165Z,11.07
2023-04-11T21:32:52.066Z,11.40
2023-04-11T21:35:20.998Z,11.17
2023-04-11T21:37:49.500Z,11.00
2023-04-11T21:40:18.554Z,11.13
2023-04-11T21:42:47.261Z,11.00
2023-04-11T21:45:15.778Z,11.23
2023-04-11T21:47:46.872Z,11.47
2023-04-11T21:50:15.713Z,11.43
2023-04-11T21:52:44.598Z,11.70
2023-04-11T21:55:13.451Z,10.93
2023-04-11T21:57:42.092Z,10.80
2023-04-11T22:00:12.443Z,11.57
2023-04-11T22:02:41.302Z,12.20
2023-04-11T22:05:12.702Z,11.47
2023-04-11T22:07:48.980Z,11.20
2023-04-11T22:10:23.807Z,12.20
2023-04-11T22:12:54.509Z,11.00
2023-04-11T22:15:24.188Z,11.17
2023-04-11T22:17:56.450Z,11.87
2023-04-11T22:20:26.506Z,11.60
2023-04-11T22:22:56.793Z,11.27
2023-04-11T22:25:25.289Z,10.90
2023-04-11T22:27:54.831Z,11.20
2023-04-11T22:30:24.449Z,12.17
2023-04-11T22:32:54.403Z,11.57
2023-04-11T22:35:24.899Z,10.87
2023-04-11T22:37:57.303Z,12.27
2023-04-11T22:40:25.851Z,10.93
2023-04-11T22:42:55.139Z,11.37
2023-04-11T22:45:24.802Z,10.90
2023-04-11T22:47:55.692Z,11.53
2023-04-11T22:50:24.218Z,11.50
2023-04-11T22:52:54.872Z,11.30
2023-04-11T22:55:25.030Z,11.23
2023-04-11T22:57:53.422Z,11.70
2023-04-11T23:00:23.839Z,11.53
2023-04-11T23:02:52.461Z,11.60
2023-04-11T23:05:21.297Z,11.37
2023-04-11T23:07:49.781Z,11.13
2023-04-11T23:10:19.657Z,11.13
2023-04-11T23:12:49.334Z,11.30
2023-04-11T23:15:18.459Z,11.33
2023-04-11T23:17:46.794Z,11.67
2023-04-11T23:20:15.829Z,10.97
2023-04-11T23:22:44.794Z,12.90
2023-04-11T23:25:15.142Z,11.03
2023-04-11T23:27:46.351Z,10.90
2023-04-11T23:30:17.651Z,11.47
2023-04-11T23:32:46.274Z,11.33
2023-04-11T23:35:16.921Z,11.10
2023-04-11T23:37:46.159Z,11.67
2023-04-11T23:40:14.967Z,11.67
2023-04-11T23:42:45.851Z,10.87
2023-04-11T23:45:15.039Z,10.70
2023-04-11T23:47:43.499Z,11.33
2023-04-11T23:50:12.768Z,10.90
2023-04-11T23:52:41.133Z,11.33
2023-04-11T23:55:10.557Z,10.87
2023-04-11T23:57:38.930Z,12.10
